Oakland, MD (21550)

4:44 AM EST on December 03, 2016 (GMT -0500)
Browning Acres | | Change Station

Elev 2740 ft 39.46 °N, 79.54 °W | Updated 2 seconds ago

Overcast
Overcast
27.5 °F
Feels Like 20 °F
N
6.8
Wind Variable Wind from SW

Today
High -- | Low -- °F
--% Chance of Precip.
Yesterday
High -- | Low -- °F
Precip. -- in
Pressure 30.12 in
Visibility 10.0 miles
Clouds Overcast 1400 ft
Windchill 20 °F
Dew Point 26 °F
Humidity 95%
Rainfall 0.00 in
Snow Depth Not available.
7:21 AM 4:54 PM
Waxing Crescent, 14% visible
METAR K2G4 030930Z AUTO 28008G22KT 262V322 10SM OVC014 M03/M04 A3012 RMK AO1
Pressure 30.12 in
Visibility 10.0 miles
Clouds Overcast 1400 ft
Windchill 20 °F
Dew Point 26 °F
Humidity 95%
Rainfall 0.00 in
Snow Depth Not available.
7:21 AM 4:54 PM
Waxing Crescent, 14% visible
METAR K2G4 030930Z AUTO 28008G22KT 262V322 10SM OVC014 M03/M04 A3012 RMK AO1

10-Day Weather Forecast

Almanac

Astronomy

Dec. 03, 2016 Rise Set
Actual Time
Civil Twilight
Nautical Twilight
Astronomical Twilight
Moon
Length of Visible Light
Length of Day
Tomorrow will be .
, % of the Moon is Illuminated

Today's Extremes

State Highs State Lows

Community

WunderPhotos

Upload Photos

1,955,434 photos uploaded!

WunderBlog® & News

Nearby

Air Quality

  Air Quality AQ Index Pollutant
Not available.

Snow Depth

Station Depth Elevation

Earthquake Activity

City Distance Mag. Time & Date
Minimum magnitude displayed is 2.5.

Coastal Water Temperatures

Place Temperature

Stations

Nearby Weather Stations

Station Location Temp. Windchill Dew Point Humidity Wind Precip. Elev Updated Type
                   

Watches & Warnings

There are currently no watches in effect.